Time;durP1;ratioP1;P1;durP2;ratioP2;P2;SDS_P1;SDS_P2;PMS_P1;PMS_P2;Temp;Humidity;BMP_temperature;BMP_pressure;BME280_temperature;BME280_humidity;BME280_pressure;Samples;Min_cycle;Max_cycle;Signal;HPM_P1;HPM_P2
2024/01/21 00:00:11;;;;;;;2.80;2.60;;;14.60;52.30;15.40;101724.00;;;;5047693;28;20200;-47
2024/01/21 00:02:37;;;;;;;2.50;2.30;;;14.60;52.30;15.40;101720.00;;;;5047424;28;20900;-47
2024/01/21 00:05:03;;;;;;;2.57;2.37;;;14.60;52.30;15.30;101735.00;;;;5048699;28;20214;-46
2024/01/21 00:07:29;;;;;;;2.60;2.40;;;14.50;52.20;15.30;101723.00;;;;5051498;28;20233;-47
2024/01/21 00:09:54;;;;;;;2.80;2.60;;;14.50;52.20;15.30;101714.00;;;;5052386;28;20175;-47
2024/01/21 00:12:21;;;;;;;2.90;2.60;;;14.50;52.30;15.30;101704.00;;;;5048041;28;20663;-50
2024/01/21 00:14:47;;;;;;;2.67;2.47;;;14.50;53.00;15.30;101702.00;;;;5048236;28;20262;-47
2024/01/21 00:17:12;;;;;;;2.50;2.30;;;14.50;52.40;15.30;101716.00;;;;5042083;28;20265;-47
2024/01/21 00:19:39;;;;;;;2.50;2.30;;;14.50;52.20;15.30;101700.00;;;;5049640;28;20182;-50
2024/01/21 00:22:05;;;;;;;2.70;2.50;;;14.50;52.30;15.30;101693.00;;;;5055823;28;20206;-50
2024/01/21 00:24:31;;;;;;;2.90;2.70;;;14.50;52.30;15.30;101693.00;;;;5053970;28;20193;-47
2024/01/21 00:26:56;;;;;;;2.90;2.60;;;14.50;52.20;15.30;101689.00;;;;5049869;28;20171;-47
2024/01/21 00:29:22;;;;;;;2.77;2.57;;;14.40;52.10;15.30;101681.00;;;;5048371;28;20178;-47
2024/01/21 00:31:48;;;;;;;2.60;2.40;;;14.40;52.20;15.30;101688.00;;;;5048001;28;20665;-47
2024/01/21 00:34:14;;;;;;;2.90;2.70;;;14.40;52.10;15.20;101672.00;;;;5048366;28;20178;-46
2024/01/21 00:36:39;;;;;;;2.80;2.60;;;14.40;52.10;15.20;101671.00;;;;5047047;28;20217;-46
2024/01/21 00:39:05;;;;;;;2.77;2.57;;;14.40;52.10;15.20;101658.00;;;;5048097;28;20174;-47
2024/01/21 00:41:31;;;;;;;2.90;2.70;;;14.40;52.10;15.20;101647.00;;;;5047033;28;20190;-47
2024/01/21 00:43:57;;;;;;;2.50;2.30;;;14.30;52.00;15.20;101651.00;;;;5040121;28;20210;-47
2024/01/21 00:46:23;;;;;;;2.70;2.50;;;14.30;52.10;15.20;101658.00;;;;5047333;28;20244;-47
2024/01/21 00:48:49;;;;;;;2.70;2.50;;;14.30;52.10;15.20;101644.00;;;;5047766;28;20181;-47
2024/01/21 00:51:15;;;;;;;2.70;2.50;;;14.20;52.00;15.20;101652.00;;;;5048228;28;20179;-46
2024/01/21 00:53:40;;;;;;;2.80;2.60;;;14.30;52.10;15.20;101631.00;;;;5046650;28;20206;-47
2024/01/21 00:56:06;;;;;;;2.70;2.50;;;14.20;53.10;15.20;101643.00;;;;5047785;28;20201;-47
2024/01/21 00:58:32;;;;;;;2.70;2.50;;;14.10;53.30;15.20;101635.00;;;;5046817;28;20201;-47
2024/01/21 01:00:58;;;;;;;2.43;2.23;;;14.10;53.70;15.10;101618.00;;;;5046187;28;20174;-47
2024/01/21 01:03:24;;;;;;;2.90;2.70;;;14.10;53.50;15.10;101629.00;;;;5044690;28;20206;-47
2024/01/21 01:05:50;;;;;;;2.60;2.40;;;14.00;53.60;15.10;101634.00;;;;5045938;28;20279;-47
2024/01/21 01:08:17;;;;;;;2.77;2.57;;;14.00;53.60;14.90;101618.00;;;;5044577;28;20741;-47
2024/01/21 01:10:43;;;;;;;2.77;2.57;;;14.00;53.70;15.10;101609.00;;;;5045989;28;20179;-48
2024/01/21 01:13:09;;;;;;;2.70;2.50;;;14.00;53.80;15.10;101607.00;;;;5046772;28;20205;-47
2024/01/21 01:15:35;;;;;;;2.80;2.60;;;14.00;53.70;15.10;101560.00;;;;5045015;28;20194;-47
2024/01/21 01:18:02;;;;;;;2.70;2.50;;;14.00;53.60;15.10;101614.00;;;;5046451;28;20186;-47
2024/01/21 01:20:27;;;;;;;2.70;2.50;;;13.90;53.60;15.00;101596.00;;;;5045265;28;20200;-47
2024/01/21 01:22:53;;;;;;;2.63;2.43;;;13.90;53.50;15.00;101601.00;;;;5046180;28;20209;-48
2024/01/21 01:25:19;;;;;;;2.70;2.50;;;13.90;53.50;15.00;101597.00;;;;5046145;28;20556;-49
2024/01/21 01:27:45;;;;;;;2.80;2.50;;;13.90;53.40;15.00;101596.00;;;;5042457;28;20183;-47
2024/01/21 01:30:11;;;;;;;2.70;2.50;;;13.90;53.30;15.00;101586.00;;;;5046211;28;20248;-47
2024/01/21 01:32:36;;;;;;;2.70;2.50;;;13.90;53.30;15.00;101603.00;;;;5045165;28;20182;-48
2024/01/21 01:35:04;;;;;;;2.80;2.60;;;13.80;53.20;15.00;101585.00;;;;5046157;28;20264;-47
2024/01/21 01:37:30;;;;;;;2.73;2.53;;;13.80;53.30;14.90;101590.00;;;;5045024;28;20809;-47
2024/01/21 01:39:56;;;;;;;2.83;2.63;;;13.80;53.30;14.90;101590.00;;;;5046233;28;20182;-47
2024/01/21 01:42:22;;;;;;;2.50;2.30;;;13.80;53.30;14.90;101580.00;;;;5045742;28;20214;-48
2024/01/21 01:44:48;;;;;;;2.70;2.50;;;13.80;53.20;14.90;101593.00;;;;5035606;28;20217;-47
2024/01/21 01:47:13;;;;;;;2.77;2.57;;;13.80;53.30;14.90;101578.00;;;;5041718;28;20178;-49
2024/01/21 01:49:40;;;;;;;2.53;2.33;;;13.70;53.20;14.90;101573.00;;;;5044993;28;20706;-49
2024/01/21 01:52:06;;;;;;;3.07;2.87;;;13.70;53.10;14.90;101567.00;;;;5044809;28;20190;-49
2024/01/21 01:54:32;;;;;;;2.70;2.50;;;13.70;53.00;14.90;101553.00;;;;5019658;28;20194;-50
2024/01/21 01:56:58;;;;;;;2.80;2.60;;;13.70;53.10;14.90;101563.00;;;;5016888;28;20185;-49
2024/01/21 01:59:24;;;;;;;2.97;2.77;;;13.70;53.00;14.80;101554.00;;;;5048617;28;20182;-49
2024/01/21 02:01:49;;;;;;;2.70;2.50;;;13.70;53.10;14.80;101550.00;;;;5045930;28;20201;-50
2024/01/21 02:04:15;;;;;;;2.70;2.50;;;13.60;53.10;14.80;101544.00;;;;5028497;28;20185;-50
2024/01/21 02:06:41;;;;;;;3.00;2.80;;;13.70;53.20;14.80;101546.00;;;;5045301;28;20210;-50
2024/01/21 02:09:07;;;;;;;2.80;2.47;;;13.70;53.30;14.80;101534.00;;;;5047734;28;20295;-50
2024/01/21 02:11:33;;;;;;;2.60;2.40;;;13.60;53.00;14.80;101545.00;;;;5053363;28;20305;-50
2024/01/21 02:13:59;;;;;;;2.90;2.70;;;13.70;53.00;14.80;101534.00;;;;5028675;28;20648;-50
2024/01/21 02:16:24;;;;;;;2.70;2.50;;;13.60;52.80;14.80;101541.00;;;;5045536;28;20201;-50
2024/01/21 02:18:50;;;;;;;3.33;2.70;;;13.70;52.60;14.70;101537.00;;;;5046524;28;20178;-49
2024/01/21 02:21:16;;;;;;;2.90;2.70;;;13.60;52.60;14.70;101533.00;;;;5050053;28;20182;-49
2024/01/21 02:23:45;;;;;;;2.60;2.40;;;13.60;52.50;14.70;101535.00;;;;5014417;28;20290;-49
2024/01/21 02:26:11;;;;;;;2.80;2.60;;;13.60;52.50;14.70;101535.00;;;;5048145;28;20194;-51
2024/01/21 02:28:37;;;;;;;2.60;2.40;;;13.60;52.50;14.70;101528.00;;;;5047425;28;20194;-50
2024/01/21 02:31:02;;;;;;;2.70;2.50;;;13.60;52.60;14.70;101528.00;;;;5049688;28;20177;-49
2024/01/21 02:33:28;;;;;;;2.80;2.60;;;13.60;52.50;14.70;101506.00;;;;5048487;28;20182;-49
2024/01/21 02:35:54;;;;;;;3.00;2.80;;;13.60;52.50;14.60;101521.00;;;;5050230;28;20198;-50
2024/01/21 02:38:19;;;;;;;2.63;2.43;;;13.50;52.50;14.60;101509.00;;;;5050750;28;20178;-50
2024/01/21 02:40:45;;;;;;;2.80;2.60;;;13.50;52.50;14.60;101506.00;;;;5048142;28;20645;-50
2024/01/21 02:43:11;;;;;;;2.70;2.50;;;13.50;52.50;14.60;101519.00;;;;5042661;28;20219;-50
2024/01/21 02:45:37;;;;;;;2.70;2.50;;;13.40;52.40;14.60;101506.00;;;;5046914;28;20233;-49
2024/01/21 02:48:03;;;;;;;2.97;2.73;;;13.50;52.50;14.60;101507.00;;;;5049619;28;20181;-49
2024/01/21 02:50:28;;;;;;;2.70;2.50;;;13.40;52.40;14.60;101502.00;;;;5048309;28;20625;-50
2024/01/21 02:52:54;;;;;;;2.83;2.63;;;13.40;52.40;14.50;101509.00;;;;5049320;28;20182;-50
2024/01/21 02:55:20;;;;;;;2.70;2.50;;;13.40;52.50;14.50;101502.00;;;;5048857;28;20225;-49
2024/01/21 02:57:45;;;;;;;3.20;2.90;;;13.40;52.50;14.50;101506.00;;;;5048289;28;20256;-49
2024/01/21 03:00:12;;;;;;;2.50;2.30;;;13.30;52.30;14.50;101504.00;;;;5049379;28;20644;-49
2024/01/21 03:02:38;;;;;;;2.70;2.50;;;13.30;52.40;14.50;101493.00;;;;5045987;28;20291;-49
2024/01/21 03:05:04;;;;;;;2.63;2.43;;;13.40;52.40;14.50;101489.00;;;;5038456;28;20280;-50
2024/01/21 03:07:30;;;;;;;2.73;2.53;;;13.40;52.30;14.50;101494.00;;;;5045557;28;20188;-49
2024/01/21 03:09:55;;;;;;;2.83;2.63;;;13.30;52.30;14.50;101497.00;;;;5047726;28;20262;-50
2024/01/21 03:12:21;;;;;;;2.40;2.20;;;13.30;52.30;14.20;101411.00;;;;5047700;28;20175;-49
2024/01/21 03:14:47;;;;;;;2.60;2.40;;;13.30;52.30;14.40;101493.00;;;;5045942;28;20564;-49
2024/01/21 03:17:12;;;;;;;2.90;2.70;;;13.40;52.40;14.40;101503.00;;;;5044165;28;20185;-49
2024/01/21 03:19:38;;;;;;;2.70;2.50;;;13.30;52.30;14.40;101487.00;;;;5047933;28;20205;-50
2024/01/21 03:22:04;;;;;;;2.70;2.50;;;13.30;52.20;14.40;101498.00;;;;5041569;28;20220;-49
2024/01/21 03:24:30;;;;;;;2.90;2.70;;;13.30;52.10;14.40;101493.00;;;;5048080;28;20209;-50
2024/01/21 03:26:56;;;;;;;3.00;2.70;;;13.30;52.10;14.40;101491.00;;;;5046161;28;20185;-49
2024/01/21 03:29:23;;;;;;;2.80;2.60;;;13.20;52.20;14.30;101491.00;;;;5048660;28;20178;-48
2024/01/21 03:31:48;;;;;;;2.70;2.50;;;13.20;52.20;14.30;101488.00;;;;5041476;28;20259;-49
2024/01/21 03:34:14;;;;;;;2.60;2.40;;;13.20;52.30;14.30;101474.00;;;;5048398;28;20754;-49
2024/01/21 03:36:40;;;;;;;2.70;2.50;;;13.20;52.30;14.30;101469.00;;;;5047742;28;20202;-49
2024/01/21 03:39:06;;;;;;;2.90;2.70;;;13.20;52.20;14.30;101468.00;;;;5048621;28;20743;-50
2024/01/21 03:41:31;;;;;;;2.80;2.60;;;13.20;52.00;14.30;101470.00;;;;5047497;28;20190;-50
2024/01/21 03:43:57;;;;;;;2.80;2.60;;;13.20;52.00;14.30;101447.00;;;;5041583;28;20261;-50
2024/01/21 03:46:24;;;;;;;2.90;2.70;;;13.20;51.90;14.30;101460.00;;;;5051286;28;20741;-49
2024/01/21 03:48:49;;;;;;;2.60;2.40;;;13.20;51.90;14.30;101425.00;;;;5052898;28;20285;-48
2024/01/21 03:51:15;;;;;;;2.80;2.60;;;13.20;52.00;14.30;101442.00;;;;5049189;28;20217;-50
2024/01/21 03:53:41;;;;;;;2.80;2.60;;;13.10;51.90;14.30;101444.00;;;;5047812;28;20181;-49
2024/01/21 03:56:07;;;;;;;2.80;2.60;;;13.20;51.90;14.20;101436.00;;;;5049179;28;20201;-49
2024/01/21 03:58:33;;;;;;;3.00;2.80;;;13.10;51.80;14.20;101431.00;;;;5048928;28;20245;-49
2024/01/21 04:00:59;;;;;;;2.80;2.60;;;13.10;51.80;14.20;101433.00;;;;5054933;28;20182;-50
2024/01/21 04:03:25;;;;;;;2.80;2.60;;;13.10;51.70;14.20;101442.00;;;;5043041;28;20198;-49
2024/01/21 04:05:50;;;;;;;2.90;2.70;;;13.10;51.80;14.20;101421.00;;;;5048646;28;20240;-50
2024/01/21 04:08:17;;;;;;;2.93;2.73;;;13.10;51.80;14.20;101432.00;;;;5049298;28;20570;-49
2024/01/21 04:10:42;;;;;;;2.60;2.40;;;13.10;51.80;14.20;101430.00;;;;5048360;28;20186;-49
2024/01/21 04:13:09;;;;;;;2.70;2.50;;;13.10;51.70;14.20;101445.00;;;;5049119;28;20173;-49
2024/01/21 04:15:34;;;;;;;2.80;2.60;;;13.10;51.60;14.20;101422.00;;;;5047825;28;20294;-49
2024/01/21 04:18:01;;;;;;;3.00;2.80;;;13.00;51.60;14.20;101359.00;;;;5047942;28;20179;-50
2024/01/21 04:20:26;;;;;;;2.90;2.70;;;13.00;51.50;14.10;101411.00;;;;5047501;28;20175;-49
2024/01/21 04:22:52;;;;;;;2.73;2.53;;;13.00;51.70;14.10;101426.00;;;;5048984;28;20288;-49
2024/01/21 04:25:18;;;;;;;2.70;2.50;;;13.00;51.60;14.10;101408.00;;;;5048957;28;20569;-50
2024/01/21 04:27:43;;;;;;;2.97;2.70;;;13.00;51.40;14.10;101417.00;;;;5045424;28;20170;-49
2024/01/21 04:30:09;;;;;;;3.33;2.50;;;13.00;52.20;14.10;101414.00;;;;5049022;28;20167;-50
2024/01/21 04:32:35;;;;;;;3.90;2.57;;;13.00;53.40;14.00;101417.00;;;;5047760;28;20616;-50
2024/01/21 04:35:01;;;;;;;3.07;2.70;;;13.00;53.10;14.00;101408.00;;;;5048664;28;20248;-49
2024/01/21 04:37:27;;;;;;;4.57;2.70;;;13.00;52.30;14.00;101405.00;;;;5047832;28;20179;-49
2024/01/21 04:39:53;;;;;;;3.67;2.70;;;13.00;52.20;14.00;101388.00;;;;5033768;28;20239;-50
2024/01/21 04:42:19;;;;;;;4.43;3.13;;;13.00;52.00;14.00;101403.00;;;;5047278;28;20672;-50
2024/01/21 04:44:45;;;;;;;4.80;3.10;;;13.00;51.50;14.00;101392.00;;;;5022497;28;20171;-53
2024/01/21 04:47:10;;;;;;;3.73;3.13;;;13.00;51.20;14.00;101397.00;;;;5047087;28;20240;-49
2024/01/21 04:49:36;;;;;;;3.40;3.10;;;12.90;50.90;14.00;101400.00;;;;5050564;28;20224;-50
2024/01/21 04:52:02;;;;;;;3.87;3.40;;;13.00;50.80;13.90;101385.00;;;;5058008;28;20536;-56
2024/01/21 04:54:28;;;;;;;3.93;3.50;;;12.90;50.30;13.90;101379.00;;;;5047539;28;20185;-50
2024/01/21 04:56:53;;;;;;;3.70;3.40;;;12.90;50.10;13.90;101367.00;;;;5044853;28;20668;-48
2024/01/21 04:59:19;;;;;;;4.00;3.60;;;12.90;49.90;13.90;101394.00;;;;5044495;28;20182;-50
2024/01/21 05:01:48;;;;;;;4.57;3.30;;;12.80;49.40;13.90;101377.00;;;;5046053;28;20175;-49
2024/01/21 05:04:14;;;;;;;3.80;3.50;;;12.80;49.40;13.80;101377.00;;;;5048064;28;20182;-49
2024/01/21 05:06:40;;;;;;;3.80;3.50;;;12.80;49.10;13.80;101344.00;;;;5047155;28;20202;-49
2024/01/21 05:09:06;;;;;;;4.23;3.50;;;12.70;49.00;13.80;101348.00;;;;5048414;28;20246;-49
2024/01/21 05:11:31;;;;;;;4.40;3.70;;;12.70;48.70;13.80;101347.00;;;;5047331;28;20181;-49
2024/01/21 05:13:57;;;;;;;4.13;3.70;;;12.70;48.60;13.80;101349.00;;;;5046921;28;20603;-48
2024/01/21 05:16:23;;;;;;;4.00;3.60;;;12.70;48.50;13.70;101336.00;;;;5047701;28;20255;-49
2024/01/21 05:18:49;;;;;;;3.90;3.50;;;12.70;48.60;13.70;101346.00;;;;5047600;28;20178;-49
2024/01/21 05:21:20;;;;;;;5.13;3.70;;;12.70;48.60;13.70;101335.00;;;;5046910;28;20170;-49
2024/01/21 05:23:47;;;;;;;3.70;3.40;;;12.70;48.60;13.70;101339.00;;;;5047294;28;20198;-50
2024/01/21 05:26:13;;;;;;;4.70;3.50;;;12.70;48.60;13.70;101351.00;;;;5046274;28;20201;-49
2024/01/21 05:28:39;;;;;;;4.10;3.70;;;12.70;48.80;13.70;101355.00;;;;5044687;28;20259;-49
2024/01/21 05:31:05;;;;;;;3.70;3.40;;;12.70;48.80;13.70;101356.00;;;;5037344;28;20171;-49
2024/01/21 05:33:31;;;;;;;3.80;3.40;;;12.70;48.80;13.70;101358.00;;;;5045044;28;20174;-49
2024/01/21 05:35:57;;;;;;;3.70;3.40;;;12.70;48.90;13.70;101361.00;;;;5052662;28;20189;-49
2024/01/21 05:38:22;;;;;;;6.67;3.33;;;12.70;48.90;13.70;101342.00;;;;5033830;28;20189;-48
2024/01/21 05:40:48;;;;;;;6.30;3.20;;;12.70;49.00;13.70;101350.00;;;;5047479;28;20680;-48
2024/01/21 05:43:14;;;;;;;11.47;3.53;;;12.60;49.60;13.70;101360.00;;;;5042108;28;20206;-49
2024/01/21 05:45:40;;;;;;;7.57;3.57;;;12.60;48.90;13.70;101362.00;;;;5046124;28;20190;-50
2024/01/21 05:48:07;;;;;;;5.57;3.67;;;12.60;48.90;13.70;101364.00;;;;5030359;28;20413;-49
2024/01/21 05:50:33;;;;;;;9.57;3.90;;;12.60;48.90;13.70;101341.00;;;;5044426;28;20178;-48
2024/01/21 05:52:58;;;;;;;8.73;3.40;;;12.60;49.00;13.70;101344.00;;;;5048105;28;20175;-49
2024/01/21 05:55:24;;;;;;;6.00;3.23;;;12.60;49.10;13.60;101357.00;;;;5047066;28;20194;-49
2024/01/21 05:57:50;;;;;;;8.90;3.43;;;12.60;49.20;13.60;101367.00;;;;5041366;28;20182;-49
2024/01/21 06:00:16;;;;;;;9.17;3.87;;;12.60;49.30;13.60;101363.00;;;;5040355;28;20174;-49
2024/01/21 06:02:42;;;;;;;7.27;3.50;;;12.50;49.30;13.60;101343.00;;;;5045801;28;20280;-49
2024/01/21 06:05:08;;;;;;;3.83;3.30;;;12.60;49.30;13.60;101336.00;;;;5045894;28;20186;-48
2024/01/21 06:07:34;;;;;;;11.97;3.40;;;12.60;49.20;13.60;101329.00;;;;5041218;28;20197;-49
2024/01/21 06:09:59;;;;;;;8.20;3.67;;;12.50;49.40;13.60;101328.00;;;;5047399;28;20182;-49
2024/01/21 06:12:25;;;;;;;3.97;3.10;;;12.50;49.40;13.50;101326.00;;;;5046878;28;20210;-49
2024/01/21 06:14:51;;;;;;;3.77;3.23;;;12.60;49.30;13.50;101326.00;;;;5046915;28;20255;-49
2024/01/21 06:17:17;;;;;;;7.37;3.20;;;12.60;49.40;13.50;101322.00;;;;5041021;28;20181;-49
2024/01/21 06:19:42;;;;;;;6.57;3.20;;;12.60;49.30;13.50;101320.00;;;;5046580;28;20178;-49
2024/01/21 06:22:08;;;;;;;5.93;3.13;;;12.70;49.30;13.50;101325.00;;;;5047278;28;20197;-49
2024/01/21 06:24:36;;;;;;;5.30;3.30;;;12.70;49.20;13.60;101328.00;;;;5046276;28;20182;-49
2024/01/21 06:27:01;;;;;;;6.77;3.10;;;12.90;49.20;13.60;101330.00;;;;5041243;28;20178;-50
2024/01/21 06:29:27;;;;;;;7.17;3.07;;;13.00;49.10;13.60;101328.00;;;;5046911;28;20182;-48
2024/01/21 06:31:53;;;;;;;6.03;3.30;;;13.10;49.00;13.70;101311.00;;;;5047367;28;20170;-50
2024/01/21 06:34:19;;;;;;;6.00;3.23;;;13.20;49.00;13.80;101309.00;;;;5047317;28;20163;-49
2024/01/21 06:36:44;;;;;;;5.10;3.13;;;13.30;48.70;13.90;101306.00;;;;5040698;28;20785;-48
2024/01/21 06:39:10;;;;;;;5.10;3.30;;;13.40;48.60;13.90;101305.00;;;;5047103;28;20171;-49
2024/01/21 06:41:36;;;;;;;3.80;2.97;;;13.60;48.50;14.00;101311.00;;;;5046327;28;20179;-49
2024/01/21 06:44:02;;;;;;;4.93;2.93;;;13.70;48.30;14.10;101317.00;;;;5039949;28;20195;-49
2024/01/21 06:46:27;;;;;;;4.17;2.80;;;13.80;48.00;14.20;101309.00;;;;5039072;28;20191;-49
2024/01/21 06:48:53;;;;;;;6.13;2.80;;;14.00;48.00;14.40;101217.00;;;;5030613;28;20170;-49
2024/01/21 06:51:31;;;;;;;5.77;2.80;;;14.10;47.80;14.50;101302.00;;;;5046883;28;20169;-50
2024/01/21 06:54:00;;;;;;;4.97;3.17;;;14.20;47.70;14.60;101280.00;;;;5046811;28;20208;-50
2024/01/21 06:56:26;;;;;;;3.00;2.67;;;14.40;47.70;14.70;101292.00;;;;5040644;28;20218;-49
2024/01/21 06:58:53;;;;;;;3.53;2.90;;;14.50;47.60;14.80;101276.00;;;;5046576;28;20213;-51
2024/01/21 07:01:18;;;;;;;2.70;2.40;;;14.60;47.50;14.90;101286.00;;;;5045503;28;20182;-49
2024/01/21 07:03:45;;;;;;;4.63;2.67;;;14.70;47.30;15.00;101280.00;;;;5034518;28;20301;-49
2024/01/21 07:06:11;;;;;;;3.20;2.87;;;14.80;47.30;15.10;101279.00;;;;5051302;28;20725;-51
2024/01/21 07:08:38;;;;;;;3.53;2.50;;;14.90;47.30;15.20;101301.00;;;;5046489;28;20178;-49
2024/01/21 07:11:10;;;;;;;3.03;2.70;;;15.00;47.30;15.20;101313.00;;;;5048895;28;20312;-50
2024/01/21 07:13:35;;;;;;;3.37;2.50;;;15.00;47.20;15.30;101325.00;;;;5049823;28;20182;-49
2024/01/21 07:16:02;;;;;;;5.63;2.57;;;15.20;47.30;15.40;101330.00;;;;5047713;28;20201;-49
2024/01/21 07:18:28;;;;;;;3.13;2.60;;;15.30;47.30;15.50;101336.00;;;;5046520;28;20182;-49
2024/01/21 07:20:53;;;;;;;2.73;2.53;;;15.30;47.20;15.50;101331.00;;;;5048052;28;20612;-51
2024/01/21 07:23:19;;;;;;;2.67;2.47;;;15.40;47.10;15.60;101352.00;;;;5046037;28;20198;-50
2024/01/21 07:25:47;;;;;;;2.90;2.60;;;15.40;47.20;15.70;101360.00;;;;5054621;28;20194;-49
2024/01/21 07:28:13;;;;;;;2.57;2.37;;;15.50;47.20;15.80;101347.00;;;;5030796;28;20179;-50
2024/01/21 07:30:39;;;;;;;3.13;2.60;;;15.60;47.20;15.80;101356.00;;;;5048780;28;20602;-50
2024/01/21 07:33:04;;;;;;;2.77;2.57;;;15.60;47.10;15.90;101355.00;;;;5050809;28;20228;-49
2024/01/21 07:35:31;;;;;;;2.57;2.33;;;15.70;47.20;15.90;101366.00;;;;5050029;28;20248;-49
2024/01/21 07:37:56;;;;;;;2.93;2.57;;;15.70;47.10;16.00;101371.00;;;;5043294;28;20244;-49
2024/01/21 07:40:22;;;;;;;2.57;2.37;;;15.80;47.20;16.10;101376.00;;;;5051516;28;20644;-50
2024/01/21 07:42:48;;;;;;;2.73;2.53;;;15.80;47.30;16.10;101386.00;;;;5045963;28;20306;-50
2024/01/21 07:45:14;;;;;;;2.67;2.47;;;15.80;47.30;16.10;101369.00;;;;5042374;28;20779;-49
2024/01/21 07:47:40;;;;;;;2.60;2.40;;;15.80;47.50;16.20;101387.00;;;;5041133;28;20184;-49
2024/01/21 07:50:07;;;;;;;3.50;2.47;;;15.80;47.80;16.20;101383.00;;;;5049772;28;20186;-50
2024/01/21 07:52:32;;;;;;;4.37;2.43;;;15.90;47.80;16.30;101399.00;;;;5049054;28;20721;-50
2024/01/21 07:54:58;;;;;;;2.70;2.50;;;15.90;47.70;16.30;101406.00;;;;5048320;28;20194;-50
2024/01/21 07:57:24;;;;;;;2.60;2.40;;;16.00;47.60;16.30;101419.00;;;;5043830;28;20187;-52
2024/01/21 07:59:49;;;;;;;2.77;2.57;;;16.10;47.60;16.40;101407.00;;;;5048861;28;20186;-50
2024/01/21 08:02:16;;;;;;;2.60;2.40;;;16.20;47.40;16.50;101409.00;;;;5049720;28;20279;-50
2024/01/21 08:04:42;;;;;;;2.50;2.30;;;16.20;47.30;16.50;101402.00;;;;5047375;28;20178;-50
2024/01/21 08:07:08;;;;;;;2.93;2.37;;;16.30;47.20;16.60;101397.00;;;;5043705;28;20611;-50
2024/01/21 08:09:34;;;;;;;3.20;2.90;;;16.30;47.20;16.60;101400.00;;;;5048637;28;20174;-50
2024/01/21 08:12:00;;;;;;;3.10;2.40;;;16.40;47.30;16.70;101380.00;;;;5048311;28;20519;-50
2024/01/21 08:14:26;;;;;;;3.10;2.50;;;16.50;47.40;16.80;101392.00;;;;5049137;28;20598;-50
2024/01/21 08:16:51;;;;;;;2.83;2.50;;;16.50;47.30;16.80;101387.00;;;;5043210;28;20199;-50
2024/01/21 08:19:19;;;;;;;4.00;2.50;;;16.60;47.40;16.80;101364.00;;;;5048057;28;20174;-50
2024/01/21 08:21:46;;;;;;;2.77;2.57;;;16.70;47.30;16.90;101366.00;;;;5048575;28;20207;-50
2024/01/21 08:24:12;;;;;;;2.90;2.70;;;16.70;47.10;16.90;101373.00;;;;5049212;28;20202;-50
2024/01/21 08:26:38;;;;;;;2.63;2.43;;;16.70;47.00;17.00;101380.00;;;;5042451;28;20249;-50
2024/01/21 08:29:04;;;;;;;2.80;2.60;;;16.70;47.20;17.00;101379.00;;;;5047874;28;20178;-50
2024/01/21 08:31:30;;;;;;;2.40;2.20;;;16.70;47.10;17.10;101371.00;;;;5047174;28;20183;-49
2024/01/21 08:33:56;;;;;;;2.60;2.40;;;16.70;47.30;17.10;101346.00;;;;5048985;28;20189;-51
2024/01/21 08:36:21;;;;;;;2.63;2.40;;;16.70;47.50;17.10;101339.00;;;;5043288;28;20208;-50
2024/01/21 08:38:47;;;;;;;2.70;2.50;;;16.70;47.50;17.10;101346.00;;;;5026466;28;20189;-50
2024/01/21 08:41:13;;;;;;;2.57;2.37;;;16.70;47.60;17.10;101325.00;;;;5034541;28;20192;-50
2024/01/21 08:43:38;;;;;;;2.53;2.33;;;16.60;47.50;17.00;101336.00;;;;5034026;28;20794;-50
2024/01/21 08:46:04;;;;;;;3.23;2.57;;;16.60;47.80;17.10;101343.00;;;;5039315;28;20200;-50
2024/01/21 08:48:30;;;;;;;7.13;2.90;;;16.60;47.80;17.10;101355.00;;;;5031451;28;20184;-49
2024/01/21 08:50:56;;;;;;;6.17;2.53;;;16.60;48.20;17.10;101359.00;;;;5035533;28;20646;-50
2024/01/21 08:53:22;;;;;;;2.90;2.70;;;16.70;48.20;17.20;101359.00;;;;5036114;28;20181;-50
2024/01/21 08:55:48;;;;;;;2.90;2.70;;;16.80;48.10;17.20;101363.00;;;;5034611;28;20203;-50
2024/01/21 08:58:14;;;;;;;4.27;2.70;;;16.80;48.00;17.20;101369.00;;;;5039863;28;20187;-51
2024/01/21 09:00:39;;;;;;;3.10;2.80;;;16.80;47.80;17.30;101356.00;;;;5039468;28;20202;-49
2024/01/21 09:03:05;;;;;;;2.53;2.33;;;16.90;47.70;17.30;101374.00;;;;5037988;28;20234;-49
2024/01/21 09:05:31;;;;;;;3.07;2.50;;;17.00;47.80;17.40;101398.00;;;;5025423;28;20665;-49
2024/01/21 09:07:56;;;;;;;3.50;2.40;;;17.00;47.80;17.40;101446.00;;;;5035838;28;20192;-50
2024/01/21 09:10:22;;;;;;;3.63;2.77;;;17.00;47.80;17.40;101448.00;;;;5037965;28;20678;-51
2024/01/21 09:12:48;;;;;;;3.10;2.60;;;17.00;48.70;17.40;101448.00;;;;5045715;28;20181;-50
2024/01/21 09:15:14;;;;;;;2.80;2.33;;;17.00;48.60;17.50;101432.00;;;;5050084;28;20208;-49
2024/01/21 09:17:41;;;;;;;2.70;2.50;;;17.10;48.50;17.50;101449.00;;;;5045137;28;20692;-49
2024/01/21 09:20:07;;;;;;;2.70;2.50;;;17.10;48.50;17.50;101449.00;;;;5039658;28;20223;-50
2024/01/21 09:22:33;;;;;;;3.17;2.60;;;17.20;48.50;17.60;101435.00;;;;5041045;28;20209;-50
2024/01/21 09:24:59;;;;;;;3.40;2.37;;;17.20;48.50;17.60;101458.00;;;;5036876;28;20202;-50
2024/01/21 09:27:25;;;;;;;2.60;2.40;;;17.30;48.00;17.60;101465.00;;;;5038119;28;20216;-49
2024/01/21 09:29:50;;;;;;;2.87;2.67;;;17.30;48.00;17.70;101475.00;;;;5043547;28;20173;-50
2024/01/21 09:32:17;;;;;;;2.57;2.37;;;17.30;48.10;17.70;101467.00;;;;5038842;28;20177;-50
2024/01/21 09:34:43;;;;;;;2.97;2.40;;;17.30;48.50;17.70;101463.00;;;;5022965;28;20217;-50
2024/01/21 09:37:10;;;;;;;3.13;2.33;;;17.30;48.80;17.70;101441.00;;;;5029161;28;20182;-51
2024/01/21 09:39:37;;;;;;;2.83;2.60;;;17.30;48.90;17.70;101446.00;;;;5044270;28;20553;-51
2024/01/21 09:42:05;;;;;;;2.50;2.30;;;17.30;48.90;17.70;101438.00;;;;5034609;28;20193;-51
2024/01/21 09:44:31;;;;;;;4.10;2.63;;;17.30;49.00;17.80;101420.00;;;;5029779;28;20884;-51
2024/01/21 09:47:01;;;;;;;2.50;2.30;;;17.30;49.10;17.80;101431.00;;;;5038658;28;20198;-51
2024/01/21 09:49:27;;;;;;;2.70;2.50;;;17.30;49.20;17.80;101412.00;;;;5013559;28;20370;-51
2024/01/21 09:51:53;;;;;;;2.70;2.50;;;17.30;49.00;17.80;101424.00;;;;5030938;28;20478;-50
2024/01/21 09:54:20;;;;;;;2.50;2.30;;;17.30;48.80;17.80;101429.00;;;;5027893;28;20328;-51
2024/01/21 09:56:46;;;;;;;2.80;2.60;;;17.30;49.20;17.80;101425.00;;;;5040453;28;20202;-51
2024/01/21 09:59:12;;;;;;;4.37;2.50;;;17.30;49.10;17.80;101430.00;;;;5046001;28;20211;-50
2024/01/21 10:01:40;;;;;;;3.23;2.70;;;17.20;48.90;17.80;101430.00;;;;5041741;28;20281;-51
2024/01/21 10:04:09;;;;;;;2.80;2.53;;;17.20;48.90;17.80;101415.00;;;;5040983;28;20275;-51
2024/01/21 10:06:35;;;;;;;5.57;2.50;;;17.30;48.90;17.80;101403.00;;;;5040867;28;20202;-51
2024/01/21 10:09:17;;;;;;;3.73;2.60;;;17.30;49.10;17.80;101436.00;;;;5046447;28;20208;-51
2024/01/21 10:11:56;;;;;;;4.83;2.40;;;17.30;49.20;17.90;101426.00;;;;5047351;28;20608;-52
2024/01/21 10:14:24;;;;;;;3.70;2.50;;;17.40;49.10;17.90;101428.00;;;;5040180;28;20560;-52
2024/01/21 10:16:50;;;;;;;3.63;2.40;;;17.40;48.90;17.90;101425.00;;;;5023862;28;20687;-52
2024/01/21 10:19:31;;;;;;;2.47;2.27;;;17.40;48.70;17.90;101427.00;;;;5041401;28;20226;-51
2024/01/21 10:22:10;;;;;;;5.90;2.80;;;17.50;48.70;18.00;101425.00;;;;5032243;28;20251;-51
2024/01/21 10:24:39;;;;;;;4.93;2.67;;;17.50;48.60;18.00;101423.00;;;;5045934;28;20180;-51
2024/01/21 10:27:06;;;;;;;4.40;2.70;;;17.50;48.60;18.00;101432.00;;;;5035394;28;20174;-51
2024/01/21 10:29:32;;;;;;;6.43;2.60;;;17.50;48.70;18.00;101435.00;;;;5046434;28;20185;-50
2024/01/21 10:31:58;;;;;;;2.50;2.30;;;17.50;50.20;18.00;101422.00;;;;5043855;28;20177;-51
2024/01/21 10:34:24;;;;;;;4.50;2.60;;;17.40;50.40;18.00;101421.00;;;;5047719;28;20185;-51
2024/01/21 10:36:49;;;;;;;2.87;2.60;;;17.40;50.20;18.00;101365.00;;;;5025714;28;20684;-53
2024/01/21 10:39:20;;;;;;;5.87;2.40;;;17.30;50.00;18.00;101441.00;;;;5047046;28;20183;-51
2024/01/21 10:41:46;;;;;;;4.40;2.30;;;17.30;49.80;18.00;101429.00;;;;5049215;28;20198;-50